createdAt,value
2018-05-02T00:43:08.590Z,1.8
2018-05-02T01:28:24.953Z,2.3
2018-05-02T01:48:37.443Z,2.3
2018-05-02T02:18:37.397Z,2.2
2018-05-02T02:38:49.812Z,2.3
2018-05-02T02:53:49.795Z,2.1
2018-05-02T03:08:49.813Z,3.5
2018-05-02T04:14:03.097Z,3.4
2018-05-02T04:49:16.173Z,2.7
2018-05-02T05:19:16.168Z,3.2
2018-05-02T05:39:30.938Z,3.1
2018-05-02T05:54:31.806Z,3.6
2018-05-02T06:09:30.905Z,3.2
2018-05-02T06:24:44.366Z,3.4
2018-05-02T06:44:44.089Z,2.4
2018-05-02T07:14:44.323Z,3.1
2018-05-02T07:34:57.256Z,3.1
2018-05-02T07:49:57.165Z,3.7
2018-05-02T08:04:56.971Z,4.3
2018-05-02T08:25:10.629Z,3.3
2018-05-02T08:40:10.654Z,4.5
2018-05-02T09:10:10.613Z,4.1
2018-05-02T09:45:26.504Z,4.1
2018-05-02T10:00:26.500Z,4.1
2018-05-02T10:35:39.997Z,5.4
2018-05-02T11:10:40.209Z,5.7
2018-05-02T11:25:55.216Z,5.5
2018-05-02T11:40:55.052Z,4.2
2018-05-02T11:55:54.932Z,4.5
2018-05-02T12:31:11.544Z,4.3
2018-05-02T12:46:11.594Z,4.2
2018-05-02T13:06:11.634Z,4.6
2018-05-02T13:21:12.461Z,4.9
2018-05-02T13:36:12.598Z,3.9
2018-05-02T13:51:12.448Z,4.2
2018-05-02T14:11:27.496Z,4.5
2018-05-02T14:26:27.467Z,4.5
2018-05-02T14:41:28.493Z,4.8
2018-05-02T15:01:41.889Z,5.4
2018-05-02T15:16:44.267Z,5.3
2018-05-02T15:31:42.496Z,5
2018-05-02T16:21:56.215Z,6.7
2018-05-02T16:52:07.979Z,6
2018-05-02T17:12:07.941Z,5.7
2018-05-02T17:42:10.993Z,6.2
2018-05-02T18:02:21.962Z,7.3
2018-05-02T18:17:21.733Z,7.8
2018-05-02T18:47:34.960Z,8.7
2018-05-02T21:03:02.015Z,9.4
2018-05-02T21:18:04.054Z,8.7
2018-05-02T22:58:31.424Z,8.8
2018-05-02T23:48:44.205Z,5.5
